createdAt,value
2022-11-24T00:12:22.185Z,1012.91
2022-11-24T00:41:27.840Z,1013.08
2022-11-24T01:10:28.376Z,1013.4
2022-11-24T01:39:32.945Z,1013.69
2022-11-24T02:08:35.595Z,1013.58
2022-11-24T02:37:32.977Z,1013.55
2022-11-24T03:06:36.277Z,1013.68
2022-11-24T03:35:34.746Z,1013.86
2022-11-24T04:04:33.988Z,1014.06
2022-11-24T04:33:12.943Z,1014.2
2022-11-24T05:02:15.235Z,1014.42
2022-11-24T05:31:12.833Z,1014.3
2022-11-24T06:00:09.858Z,1015.16
2022-11-24T06:29:03.101Z,1015.24
2022-11-24T06:58:03.493Z,1015.86
2022-11-24T07:27:03.255Z,1016.01
2022-11-24T07:56:00.695Z,1016.35
2022-11-24T08:24:52.316Z,1016.58
2022-11-24T08:53:46.697Z,1016.71
2022-11-24T09:22:47.277Z,1017.01
2022-11-24T09:51:50.166Z,1017.5
2022-11-24T10:20:46.589Z,1017.6
2022-11-24T10:49:41.102Z,1017.67
2022-11-24T11:18:38.857Z,1017.79
2022-11-24T11:47:33.232Z,1017.68
2022-11-24T12:16:25.933Z,1017.88
2022-11-24T12:45:12.526Z,1017.84
2022-11-24T13:14:01.831Z,1017.7
2022-11-24T13:42:56.317Z,1017.69
2022-11-24T14:11:33.265Z,1017.62
2022-11-24T14:40:27.398Z,1017.57
2022-11-24T15:09:17.913Z,1017.3
2022-11-24T15:38:07.697Z,1017.45
2022-11-24T16:06:55.946Z,1017.49
2022-11-24T16:35:50.157Z,1017.72
2022-11-24T17:04:50.543Z,1017.69
2022-11-24T17:33:49.460Z,1017.84
2022-11-24T18:02:47.263Z,1017.81
2022-11-24T18:31:39.932Z,1017.68
2022-11-24T19:00:31.754Z,1017.68
2022-11-24T19:29:14.461Z,1017.66
2022-11-24T19:58:13.482Z,1017.68
2022-11-24T20:27:11.223Z,1017.57
2022-11-24T20:56:13.289Z,1017.6
2022-11-24T21:25:17.716Z,1017.47
2022-11-24T21:54:03.317Z,1017.3
2022-11-24T22:23:03.305Z,1017.52
2022-11-24T22:51:57.364Z,1017.92
2022-11-24T23:20:55.511Z,1017.83
2022-11-24T23:49:49.396Z,1017.57
